sensor_id;sensor_type;location;lat;lon;timestamp;pressure;altitude;pressure_sealevel;temperature;humidity
75627;BME280;67372;49.404;11.034;2024-03-08T00:00:18;98305.41;;;0.18;72.75
75627;BME280;67372;49.404;11.034;2024-03-08T00:02:46;98300.16;;;0.18;73.46
75627;BME280;67372;49.404;11.034;2024-03-08T00:05:14;98293.41;;;0.15;73.06
75627;BME280;67372;49.404;11.034;2024-03-08T00:07:41;98295.50;;;0.12;73.36
75627;BME280;67372;49.404;11.034;2024-03-08T00:10:10;98294.16;;;0.08;73.88
75627;BME280;67372;49.404;11.034;2024-03-08T00:12:41;98296.09;;;0.06;73.78
75627;BME280;67372;49.404;11.034;2024-03-08T00:15:09;98296.09;;;0.06;73.69
75627;BME280;67372;49.404;11.034;2024-03-08T00:17:35;98290.19;;;0.04;73.20
75627;BME280;67372;49.404;11.034;2024-03-08T00:20:02;98287.88;;;0.01;73.41
75627;BME280;67372;49.404;11.034;2024-03-08T00:22:29;98284.53;;;-0.02;74.36
75627;BME280;67372;49.404;11.034;2024-03-08T00:24:55;98289.94;;;-0.03;74.63
75627;BME280;67372;49.404;11.034;2024-03-08T00:27:21;98285.97;;;-0.07;74.22
75627;BME280;67372;49.404;11.034;2024-03-08T00:29:48;98289.56;;;-0.08;74.02
75627;BME280;67372;49.404;11.034;2024-03-08T00:32:14;98289.56;;;-0.08;74.44
75627;BME280;67372;49.404;11.034;2024-03-08T00:34:41;98286.94;;;-0.08;74.66
75627;BME280;67372;49.404;11.034;2024-03-08T00:37:07;98284.47;;;-0.10;75.08
75627;BME280;67372;49.404;11.034;2024-03-08T00:39:33;98280.34;;;-0.12;74.89
75627;BME280;67372;49.404;11.034;2024-03-08T00:42:00;98277.19;;;-0.16;75.15
75627;BME280;67372;49.404;11.034;2024-03-08T00:44:26;98275.84;;;-0.20;74.83
75627;BME280;67372;49.404;11.034;2024-03-08T00:46:53;98266.59;;;-0.24;74.92
75627;BME280;67372;49.404;11.034;2024-03-08T00:49:20;98270.47;;;-0.28;75.22
75627;BME280;67372;49.404;11.034;2024-03-08T00:51:47;98270.78;;;-0.31;75.15
75627;BME280;67372;49.404;11.034;2024-03-08T00:54:13;98268.44;;;-0.34;75.70
75627;BME280;67372;49.404;11.034;2024-03-08T00:56:40;98267.78;;;-0.36;75.44
75627;BME280;67372;49.404;11.034;2024-03-08T00:59:06;98269.41;;;-0.35;75.42
75627;BME280;67372;49.404;11.034;2024-03-08T01:01:33;98258.94;;;-0.35;75.52
75627;BME280;67372;49.404;11.034;2024-03-08T01:03:59;98252.72;;;-0.34;75.74
75627;BME280;67372;49.404;11.034;2024-03-08T01:06:26;98251.22;;;-0.37;75.39
75627;BME280;67372;49.404;11.034;2024-03-08T01:08:52;98249.44;;;-0.36;75.39
75627;BME280;67372;49.404;11.034;2024-03-08T01:11:19;98247.78;;;-0.37;75.77
75627;BME280;67372;49.404;11.034;2024-03-08T01:13:45;98248.91;;;-0.40;75.94
75627;BME280;67372;49.404;11.034;2024-03-08T01:16:11;98237.75;;;-0.42;76.35
75627;BME280;67372;49.404;11.034;2024-03-08T01:18:42;98239.84;;;-0.45;76.57
75627;BME280;67372;49.404;11.034;2024-03-08T01:21:09;98235.00;;;-0.50;76.76
75627;BME280;67372;49.404;11.034;2024-03-08T01:23:35;98241.06;;;-0.49;76.25
75627;BME280;67372;49.404;11.034;2024-03-08T01:26:02;98235.84;;;-0.49;76.40
75627;BME280;67372;49.404;11.034;2024-03-08T01:28:28;98240.56;;;-0.53;76.94
75627;BME280;67372;49.404;11.034;2024-03-08T01:30:54;98232.97;;;-0.56;77.01
75627;BME280;67372;49.404;11.034;2024-03-08T01:33:25;98234.94;;;-0.58;76.75
75627;BME280;67372;49.404;11.034;2024-03-08T01:35:53;98229.31;;;-0.63;77.69
75627;BME280;67372;49.404;11.034;2024-03-08T01:38:20;98227.13;;;-0.68;77.48
75627;BME280;67372;49.404;11.034;2024-03-08T01:40:47;98223.94;;;-0.71;77.12
75627;BME280;67372;49.404;11.034;2024-03-08T01:43:26;98223.13;;;-0.72;77.29
75627;BME280;67372;49.404;11.034;2024-03-08T01:45:53;98222.59;;;-0.75;76.93
75627;BME280;67372;49.404;11.034;2024-03-08T01:48:20;98212.25;;;-0.77;77.16
75627;BME280;67372;49.404;11.034;2024-03-08T01:50:47;98221.22;;;-0.79;77.60
75627;BME280;67372;49.404;11.034;2024-03-08T01:53:13;98216.28;;;-0.82;78.20
75627;BME280;67372;49.404;11.034;2024-03-08T01:55:40;98206.50;;;-0.80;78.09
75627;BME280;67372;49.404;11.034;2024-03-08T01:58:06;98210.91;;;-0.81;77.61
75627;BME280;67372;49.404;11.034;2024-03-08T02:00:36;98216.28;;;-0.82;79.06
75627;BME280;67372;49.404;11.034;2024-03-08T02:03:04;98212.16;;;-0.85;78.07
75627;BME280;67372;49.404;11.034;2024-03-08T02:05:31;98201.31;;;-0.90;79.34
75627;BME280;67372;49.404;11.034;2024-03-08T02:07:58;98198.41;;;-0.97;79.13
75627;BME280;67372;49.404;11.034;2024-03-08T02:10:24;98203.94;;;-1.00;79.03
75627;BME280;67372;49.404;11.034;2024-03-08T02:12:50;98192.66;;;-1.00;78.33
75627;BME280;67372;49.404;11.034;2024-03-08T02:15:17;98187.72;;;-1.03;78.75
75627;BME280;67372;49.404;11.034;2024-03-08T02:17:43;98192.94;;;-1.03;78.83
75627;BME280;67372;49.404;11.034;2024-03-08T02:20:10;98185.91;;;-1.03;77.88
75627;BME280;67372;49.404;11.034;2024-03-08T02:22:36;98185.63;;;-1.00;78.25
75627;BME280;67372;49.404;11.034;2024-03-08T02:25:03;98183.16;;;-1.01;78.13
75627;BME280;67372;49.404;11.034;2024-03-08T02:27:31;98172.69;;;-1.01;78.91
75627;BME280;67372;49.404;11.034;2024-03-08T02:29:57;98172.69;;;-1.01;78.67
75627;BME280;67372;49.404;11.034;2024-03-08T02:32:24;98166.78;;;-1.03;78.85
75627;BME280;67372;49.404;11.034;2024-03-08T02:34:50;98165.41;;;-1.07;79.76
75627;BME280;67372;49.404;11.034;2024-03-08T02:37:17;98167.50;;;-1.11;78.89
75627;BME280;67372;49.404;11.034;2024-03-08T02:39:43;98170.41;;;-1.14;79.24
75627;BME280;67372;49.404;11.034;2024-03-08T02:42:10;98164.63;;;-1.17;79.68
75627;BME280;67372;49.404;11.034;2024-03-08T02:44:37;98168.19;;;-1.18;79.47
75627;BME280;67372;49.404;11.034;2024-03-08T02:47:03;98157.88;;;-1.20;79.21
75627;BME280;67372;49.404;11.034;2024-03-08T02:49:30;98162.03;;;-1.17;79.05
75627;BME280;67372;49.404;11.034;2024-03-08T02:51:56;98158.59;;;-1.18;79.83
75627;BME280;67372;49.404;11.034;2024-03-08T02:54:22;98157.06;;;-1.20;79.71
75627;BME280;67372;49.404;11.034;2024-03-08T02:56:49;98154.56;;;-1.22;80.98
75627;BME280;67372;49.404;11.034;2024-03-08T02:59:15;98151.13;;;-1.23;81.07
75627;BME280;67372;49.404;11.034;2024-03-08T03:01:41;98151.44;;;-1.26;81.17
75627;BME280;67372;49.404;11.034;2024-03-08T03:04:08;98151.72;;;-1.29;80.84
75627;BME280;67372;49.404;11.034;2024-03-08T03:06:34;98151.88;;;-1.30;81.58
75627;BME280;67372;49.404;11.034;2024-03-08T03:09:01;98157.25;;;-1.32;80.40
75627;BME280;67372;49.404;11.034;2024-03-08T03:11:28;98152.16;;;-1.33;80.61
75627;BME280;67372;49.404;11.034;2024-03-08T03:13:54;98154.47;;;-1.30;79.77
75627;BME280;67372;49.404;11.034;2024-03-08T03:16:21;98150.91;;;-1.29;80.53
75627;BME280;67372;49.404;11.034;2024-03-08T03:18:47;98147.59;;;-1.31;81.50
75627;BME280;67372;49.404;11.034;2024-03-08T03:21:14;98153.13;;;-1.34;80.61
75627;BME280;67372;49.404;11.034;2024-03-08T03:23:41;98148.03;;;-1.36;80.95
75627;BME280;67372;49.404;11.034;2024-03-08T03:26:08;98141.28;;;-1.38;81.17
75627;BME280;67372;49.404;11.034;2024-03-08T03:28:35;98144.22;;;-1.41;80.16
75627;BME280;67372;49.404;11.034;2024-03-08T03:31:01;98135.53;;;-1.42;80.70
75627;BME280;67372;49.404;11.034;2024-03-08T03:33:27;98131.38;;;-1.44;80.52
75627;BME280;67372;49.404;11.034;2024-03-08T03:35:54;98135.78;;;-1.45;80.34
75627;BME280;67372;49.404;11.034;2024-03-08T03:38:20;98132.22;;;-1.44;80.39
75627;BME280;67372;49.404;11.034;2024-03-08T03:40:47;98134.97;;;-1.45;81.27
75627;BME280;67372;49.404;11.034;2024-03-08T03:43:13;98133.47;;;-1.48;81.67
75627;BME280;67372;49.404;11.034;2024-03-08T03:45:40;98131.81;;;-1.49;81.18
75627;BME280;67372;49.404;11.034;2024-03-08T03:48:07;98119.56;;;-1.48;80.83
75627;BME280;67372;49.404;11.034;2024-03-08T03:50:34;98127.56;;;-1.50;80.66
75627;BME280;67372;49.404;11.034;2024-03-08T03:53:02;98122.47;;;-1.51;81.60
75627;BME280;67372;49.404;11.034;2024-03-08T03:55:28;98128.53;;;-1.51;81.29
75627;BME280;67372;49.404;11.034;2024-03-08T03:57:54;98124.25;;;-1.52;81.88
75627;BME280;67372;49.404;11.034;2024-03-08T04:00:21;98122.75;;;-1.55;81.47
75627;BME280;67372;49.404;11.034;2024-03-08T04:02:47;98127.31;;;-1.57;82.04
75627;BME280;67372;49.404;11.034;2024-03-08T04:05:14;98124.16;;;-1.60;81.96
75627;BME280;67372;49.404;11.034;2024-03-08T04:07:40;98123.03;;;-1.58;80.95
75627;BME280;67372;49.404;11.034;2024-03-08T04:10:08;98120.56;;;-1.59;81.49
75627;BME280;67372;49.404;11.034;2024-03-08T04:12:35;98122.38;;;-1.60;80.96
75627;BME280;67372;49.404;11.034;2024-03-08T04:15:02;98120.56;;;-1.59;81.54
75627;BME280;67372;49.404;11.034;2024-03-08T04:17:28;98120.72;;;-1.61;81.36
75627;BME280;67372;49.404;11.034;2024-03-08T04:19:55;98119.06;;;-1.62;81.54
75627;BME280;67372;49.404;11.034;2024-03-08T04:22:21;98119.88;;;-1.61;81.01
75627;BME280;67372;49.404;11.034;2024-03-08T04:24:48;98117.28;;;-1.61;81.20
75627;BME280;67372;49.404;11.034;2024-03-08T04:27:14;98107.78;;;-1.62;81.47
75627;BME280;67372;49.404;11.034;2024-03-08T04:29:40;98113.97;;;-1.63;82.06
75627;BME280;67372;49.404;11.034;2024-03-08T04:32:07;98113.31;;;-1.65;81.76
75627;BME280;67372;49.404;11.034;2024-03-08T04:34:34;98110.94;;;-1.68;81.62
75627;BME280;67372;49.404;11.034;2024-03-08T04:37:01;98104.06;;;-1.69;81.52
75627;BME280;67372;49.404;11.034;2024-03-08T04:39:27;98107.50;;;-1.69;81.78
75627;BME280;67372;49.404;11.034;2024-03-08T04:41:55;98103.09;;;-1.68;82.43
75627;BME280;67372;49.404;11.034;2024-03-08T04:44:27;98106.81;;;-1.71;82.57
75627;BME280;67372;49.404;11.034;2024-03-08T04:46:54;98105.03;;;-1.70;82.33
75627;BME280;67372;49.404;11.034;2024-03-08T04:49:20;98098.97;;;-1.71;82.70
75627;BME280;67372;49.404;11.034;2024-03-08T04:51:46;98096.38;;;-1.71;82.49
75627;BME280;67372;49.404;11.034;2024-03-08T04:54:13;98098.84;;;-1.69;82.19
75627;BME280;67372;49.404;11.034;2024-03-08T04:56:39;98095.25;;;-1.68;83.91
75627;BME280;67372;49.404;11.034;2024-03-08T04:59:06;98101.06;;;-1.65;83.86
75627;BME280;67372;49.404;11.034;2024-03-08T05:01:32;98094.84;;;-1.64;82.45
75627;BME280;67372;49.404;11.034;2024-03-08T05:03:58;98082.59;;;-1.63;82.45
75627;BME280;67372;49.404;11.034;2024-03-08T05:06:31;98084.25;;;-1.62;82.74
75627;BME280;67372;49.404;11.034;2024-03-08T05:08:57;98086.88;;;-1.62;83.28
75627;BME280;67372;49.404;11.034;2024-03-08T05:11:24;98090.16;;;-1.60;83.28
75627;BME280;67372;49.404;11.034;2024-03-08T05:13:50;98083.97;;;-1.59;82.37
75627;BME280;67372;49.404;11.034;2024-03-08T05:16:16;98081.34;;;-1.59;82.41
75627;BME280;67372;49.404;11.034;2024-03-08T05:18:43;98072.53;;;-1.58;81.95
75627;BME280;67372;49.404;11.034;2024-03-08T05:21:09;98074.03;;;-1.56;82.50
75627;BME280;67372;49.404;11.034;2024-03-08T05:23:36;98073.91;;;-1.54;81.88
75627;BME280;67372;49.404;11.034;2024-03-08T05:26:02;98070.31;;;-1.53;82.01
75627;BME280;67372;49.404;11.034;2024-03-08T05:28:31;98066.88;;;-1.53;81.86
75627;BME280;67372;49.404;11.034;2024-03-08T05:30:57;98066.72;;;-1.52;81.64
75627;BME280;67372;49.404;11.034;2024-03-08T05:33:24;98064.94;;;-1.51;82.87
75627;BME280;67372;49.404;11.034;2024-03-08T05:35:50;98064.78;;;-1.50;82.50
75627;BME280;67372;49.404;11.034;2024-03-08T05:38:17;98060.22;;;-1.48;81.97
75627;BME280;67372;49.404;11.034;2024-03-08T05:40:43;98060.91;;;-1.46;82.50
75627;BME280;67372;49.404;11.034;2024-03-08T05:43:09;98065.16;;;-1.45;83.24
75627;BME280;67372;49.404;11.034;2024-03-08T05:45:36;98059.94;;;-1.45;82.81
75627;BME280;67372;49.404;11.034;2024-03-08T05:48:03;98059.94;;;-1.45;85.31
75627;BME280;67372;49.404;11.034;2024-03-08T05:50:31;98051.94;;;-1.43;86.09
75627;BME280;67372;49.404;11.034;2024-03-08T05:52:57;98063.13;;;-1.41;84.77
75627;BME280;67372;49.404;11.034;2024-03-08T05:55:23;98054.84;;;-1.37;87.84
75627;BME280;67372;49.404;11.034;2024-03-08T05:57:50;98053.56;;;-1.33;87.24
75627;BME280;67372;49.404;11.034;2024-03-08T06:00:16;98059.03;;;-1.26;87.70
75627;BME280;67372;49.404;11.034;2024-03-08T06:02:43;98054.03;;;-1.19;88.54
75627;BME280;67372;49.404;11.034;2024-03-08T06:05:10;98051.09;;;-1.07;87.94
75627;BME280;67372;49.404;11.034;2024-03-08T06:07:37;98052.25;;;-0.91;88.37
75627;BME280;67372;49.404;11.034;2024-03-08T06:10:04;98050.91;;;-0.78;88.54
75627;BME280;67372;49.404;11.034;2024-03-08T06:12:30;98049.88;;;-0.67;87.57
75627;BME280;67372;49.404;11.034;2024-03-08T06:14:57;98056.66;;;-0.56;86.38
75627;BME280;67372;49.404;11.034;2024-03-08T06:17:23;98047.06;;;-0.48;86.36
75627;BME280;67372;49.404;11.034;2024-03-08T06:19:50;98046.19;;;-0.39;85.36
75627;BME280;67372;49.404;11.034;2024-03-08T06:22:16;98046.91;;;-0.28;83.73
75627;BME280;67372;49.404;11.034;2024-03-08T06:24:42;98045.34;;;-0.21;83.71
75627;BME280;67372;49.404;11.034;2024-03-08T06:27:09;98047.19;;;-0.14;83.02
75627;BME280;67372;49.404;11.034;2024-03-08T06:29:35;98043.13;;;-0.08;83.03
75627;BME280;67372;49.404;11.034;2024-03-08T06:32:02;98048.59;;;-0.02;82.77
75627;BME280;67372;49.404;11.034;2024-03-08T06:34:28;98050.78;;;0.03;82.87
75627;BME280;67372;49.404;11.034;2024-03-08T06:36:54;98050.00;;;0.11;82.40
75627;BME280;67372;49.404;11.034;2024-03-08T06:39:21;98046.28;;;0.21;81.94
75627;BME280;67372;49.404;11.034;2024-03-08T06:41:47;98041.25;;;0.28;81.79
75627;BME280;67372;49.404;11.034;2024-03-08T06:44:14;98050.66;;;0.39;82.11
75627;BME280;67372;49.404;11.034;2024-03-08T06:46:40;98037.56;;;0.47;82.15
75627;BME280;67372;49.404;11.034;2024-03-08T06:49:07;98047.13;;;0.56;83.14
75627;BME280;67372;49.404;11.034;2024-03-08T06:51:33;98041.09;;;0.64;83.76
75627;BME280;67372;49.404;11.034;2024-03-08T06:54:00;98047.41;;;0.79;88.11
75627;BME280;67372;49.404;11.034;2024-03-08T06:56:26;98032.97;;;0.91;84.51
75627;BME280;67372;49.404;11.034;2024-03-08T06:58:53;98036.97;;;1.03;83.82
75627;BME280;67372;49.404;11.034;2024-03-08T07:01:19;98030.41;;;1.15;82.50
75627;BME280;67372;49.404;11.034;2024-03-08T07:03:45;98044.41;;;1.24;82.06
75627;BME280;67372;49.404;11.034;2024-03-08T07:06:12;98040.66;;;1.35;82.54
75627;BME280;67372;49.404;11.034;2024-03-08T07:08:39;98041.00;;;1.48;81.28
75627;BME280;67372;49.404;11.034;2024-03-08T07:11:05;98039.19;;;1.57;80.90
75627;BME280;67372;49.404;11.034;2024-03-08T07:13:32;98036.09;;;1.69;80.52
75627;BME280;67372;49.404;11.034;2024-03-08T07:15:58;98032.47;;;1.78;79.84
75627;BME280;67372;49.404;11.034;2024-03-08T07:18:25;98029.16;;;1.84;79.64
75627;BME280;67372;49.404;11.034;2024-03-08T07:20:51;98028.34;;;1.92;79.28
75627;BME280;67372;49.404;11.034;2024-03-08T07:23:18;98027.34;;;2.01;79.34
75627;BME280;67372;49.404;11.034;2024-03-08T07:25:44;98032.41;;;2.11;78.97
75627;BME280;67372;49.404;11.034;2024-03-08T07:28:10;98027.81;;;2.21;79.07
75627;BME280;67372;49.404;11.034;2024-03-08T07:30:39;98020.38;;;2.33;79.54
75627;BME280;67372;49.404;11.034;2024-03-08T07:33:05;98020.19;;;2.42;77.65
75627;BME280;67372;49.404;11.034;2024-03-08T07:35:35;98018.34;;;2.51;77.63
75627;BME280;67372;49.404;11.034;2024-03-08T07:38:04;98008.13;;;2.56;76.94
75627;BME280;67372;49.404;11.034;2024-03-08T07:40:31;98010.75;;;2.56;77.13
75627;BME280;67372;49.404;11.034;2024-03-08T07:42:58;98006.13;;;2.58;76.84
75627;BME280;67372;49.404;11.034;2024-03-08T07:45:24;98012.03;;;2.68;76.42
75627;BME280;67372;49.404;11.034;2024-03-08T07:47:50;98006.09;;;2.74;76.30
75627;BME280;67372;49.404;11.034;2024-03-08T07:50:17;98014.28;;;2.80;75.88
75627;BME280;67372;49.404;11.034;2024-03-08T07:55:52;97999.53;;;3.01;74.96
75627;BME280;67372;49.404;11.034;2024-03-08T07:58:19;98003.28;;;3.07;75.06
75627;BME280;67372;49.404;11.034;2024-03-08T08:00:50;98005.34;;;3.20;75.54
75627;BME280;67372;49.404;11.034;2024-03-08T08:03:17;98002.47;;;3.29;74.84
75627;BME280;67372;49.404;11.034;2024-03-08T08:05:48;97999.91;;;3.44;74.83
75627;BME280;67372;49.404;11.034;2024-03-08T08:08:14;97992.41;;;3.56;74.66
75627;BME280;67372;49.404;11.034;2024-03-08T08:10:41;97987.88;;;3.64;73.64
75627;BME280;67372;49.404;11.034;2024-03-08T08:13:07;97990.34;;;3.66;72.17
75627;BME280;67372;49.404;11.034;2024-03-08T08:15:33;97981.72;;;3.72;71.71
75627;BME280;67372;49.404;11.034;2024-03-08T08:18:00;97979.22;;;3.79;71.36
75627;BME280;67372;49.404;11.034;2024-03-08T08:20:26;97978.56;;;3.91;72.13
75627;BME280;67372;49.404;11.034;2024-03-08T08:22:53;97975.03;;;3.99;70.87
75627;BME280;67372;49.404;11.034;2024-03-08T08:25:19;97972.03;;;4.02;70.05
75627;BME280;67372;49.404;11.034;2024-03-08T08:27:46;97964.06;;;4.10;71.03
75627;BME280;67372;49.404;11.034;2024-03-08T08:32:54;97959.75;;;4.24;70.35
75627;BME280;67372;49.404;11.034;2024-03-08T09:07:37;97918.72;;;5.30;63.57
75627;BME280;67372;49.404;11.034;2024-03-08T09:10:04;97916.88;;;5.30;63.56
75627;BME280;67372;49.404;11.034;2024-03-08T09:12:33;97911.22;;;5.33;62.73
75627;BME280;67372;49.404;11.034;2024-03-08T09:15:00;97914.25;;;5.30;62.48
75627;BME280;67372;49.404;11.034;2024-03-08T09:17:26;97910.63;;;5.38;62.33
75627;BME280;67372;49.404;11.034;2024-03-08T09:19:52;97905.53;;;5.36;62.26
75627;BME280;67372;49.404;11.034;2024-03-08T09:22:19;97898.47;;;5.43;62.09
75627;BME280;67372;49.404;11.034;2024-03-08T09:24:45;97901.94;;;5.44;62.14
75627;BME280;67372;49.404;11.034;2024-03-08T09:27:12;97896.13;;;5.55;61.93
75627;BME280;67372;49.404;11.034;2024-03-08T09:29:38;97897.00;;;5.62;61.34
75627;BME280;67372;49.404;11.034;2024-03-08T09:32:05;97883.44;;;5.72;61.08
75627;BME280;67372;49.404;11.034;2024-03-08T09:34:31;97882.91;;;5.83;61.27
75627;BME280;67372;49.404;11.034;2024-03-08T09:37:03;97893.91;;;5.86;61.01
75627;BME280;67372;49.404;11.034;2024-03-08T09:39:30;97884.84;;;5.96;61.33
75627;BME280;67372;49.404;11.034;2024-03-08T09:52:39;97881.19;;;6.38;58.73
75627;BME280;67372;49.404;11.034;2024-03-08T09:55:05;97886.47;;;6.38;59.16
75627;BME280;67372;49.404;11.034;2024-03-08T10:00:07;97864.09;;;6.40;59.00
75627;BME280;67372;49.404;11.034;2024-03-08T10:07:51;97855.19;;;6.61;56.82
75627;BME280;67372;49.404;11.034;2024-03-08T10:10:17;97864.59;;;6.64;57.57
75627;BME280;67372;49.404;11.034;2024-03-08T10:12:43;97857.69;;;6.76;57.29
75627;BME280;67372;49.404;11.034;2024-03-08T10:15:10;97855.88;;;6.90;57.17
75627;BME280;67372;49.404;11.034;2024-03-08T10:17:36;97854.03;;;7.03;57.13
75627;BME280;67372;49.404;11.034;2024-03-08T10:20:03;97842.44;;;7.11;56.21
75627;BME280;67372;49.404;11.034;2024-03-08T10:22:30;97844.88;;;7.06;55.22
75627;BME280;67372;49.404;11.034;2024-03-08T10:24:56;97842.84;;;7.15;55.74
75627;BME280;67372;49.404;11.034;2024-03-08T10:27:22;97833.03;;;7.28;55.63
75627;BME280;67372;49.404;11.034;2024-03-08T10:29:49;97826.53;;;7.37;54.42
75627;BME280;67372;49.404;11.034;2024-03-08T10:32:15;97834.88;;;7.41;53.95
75627;BME280;67372;49.404;11.034;2024-03-08T10:34:41;97821.59;;;7.54;54.31
75627;BME280;67372;49.404;11.034;2024-03-08T10:37:14;97823.66;;;7.59;53.50
75627;BME280;67372;49.404;11.034;2024-03-08T10:39:46;97813.63;;;7.54;54.10
75627;BME280;67372;49.404;11.034;2024-03-08T10:42:22;97820.16;;;7.65;54.09
75627;BME280;67372;49.404;11.034;2024-03-08T10:45:50;97815.44;;;7.74;53.13
75627;BME280;67372;49.404;11.034;2024-03-08T10:50:29;97815.38;;;8.00;52.55
75627;BME280;67372;49.404;11.034;2024-03-08T10:52:56;97808.81;;;8.09;51.98
75627;BME280;67372;49.404;11.034;2024-03-08T10:55:23;97813.88;;;8.17;51.60
75627;BME280;67372;49.404;11.034;2024-03-08T10:57:50;97815.25;;;8.26;52.00
75627;BME280;67372;49.404;11.034;2024-03-08T11:00:17;97804.44;;;8.35;51.37
75627;BME280;67372;49.404;11.034;2024-03-08T11:02:44;97794.75;;;8.47;50.11
75627;BME280;67372;49.404;11.034;2024-03-08T11:05:16;97794.97;;;8.52;50.36
75627;BME280;67372;49.404;11.034;2024-03-08T11:07:57;97789.59;;;8.58;49.86
75627;BME280;67372;49.404;11.034;2024-03-08T11:10:23;97776.25;;;8.65;49.79
75627;BME280;67372;49.404;11.034;2024-03-08T11:12:50;97778.44;;;8.75;50.60
75627;BME280;67372;49.404;11.034;2024-03-08T11:15:17;97770.66;;;8.80;49.84
75627;BME280;67372;49.404;11.034;2024-03-08T11:17:49;97764.25;;;8.87;49.58
75627;BME280;67372;49.404;11.034;2024-03-08T11:20:19;97770.66;;;8.80;47.71
75627;BME280;67372;49.404;11.034;2024-03-08T11:22:52;97756.75;;;8.78;48.21
75627;BME280;67372;49.404;11.034;2024-03-08T11:33:30;97740.00;;;9.20;47.67
75627;BME280;67372;49.404;11.034;2024-03-08T11:36:21;97734.56;;;9.34;46.07
75627;BME280;67372;49.404;11.034;2024-03-08T11:38:48;97734.28;;;9.42;45.26
75627;BME280;67372;49.404;11.034;2024-03-08T11:41:19;97728.72;;;9.43;44.54
75627;BME280;67372;49.404;11.034;2024-03-08T11:43:46;97714.16;;;9.46;45.27
75627;BME280;67372;49.404;11.034;2024-03-08T11:46:15;97716.56;;;9.54;45.62
75627;BME280;67372;49.404;11.034;2024-03-08T11:48:44;97712.53;;;9.63;44.94
75627;BME280;67372;49.404;11.034;2024-03-08T11:51:14;97713.44;;;9.75;44.96
75627;BME280;67372;49.404;11.034;2024-03-08T11:53:41;97715.25;;;9.93;43.39
75627;BME280;67372;49.404;11.034;2024-03-08T11:56:13;97703.06;;;10.04;42.84
75627;BME280;67372;49.404;11.034;2024-03-08T11:58:40;97689.72;;;10.04;42.03
75627;BME280;67372;49.404;11.034;2024-03-08T12:01:08;97692.53;;;10.09;42.88
75627;BME280;67372;49.404;11.034;2024-03-08T12:03:35;97696.94;;;10.15;42.77
75627;BME280;67372;49.404;11.034;2024-03-08T12:06:01;97683.78;;;10.20;42.31
75627;BME280;67372;49.404;11.034;2024-03-08T12:08:28;97679.06;;;10.34;42.07
75627;BME280;67372;49.404;11.034;2024-03-08T12:10:54;97699.50;;;10.40;42.78
75627;BME280;67372;49.404;11.034;2024-03-08T12:13:21;97684.53;;;10.39;41.57
75627;BME280;67372;49.404;11.034;2024-03-08T12:15:47;97682.56;;;10.34;43.01
75627;BME280;67372;49.404;11.034;2024-03-08T12:18:14;97669.16;;;10.41;43.92
75627;BME280;67372;49.404;11.034;2024-03-08T12:20:40;97666.31;;;10.36;44.24
75627;BME280;67372;49.404;11.034;2024-03-08T12:23:13;97680.06;;;10.51;44.45
75627;BME280;67372;49.404;11.034;2024-03-08T12:25:40;97677.38;;;10.51;44.12
75627;BME280;67372;49.404;11.034;2024-03-08T12:28:10;97671.25;;;10.51;44.44
75627;BME280;67372;49.404;11.034;2024-03-08T12:30:51;97667.19;;;10.60;44.13
75627;BME280;67372;49.404;11.034;2024-03-08T12:33:18;97661.78;;;10.66;44.40
75627;BME280;67372;49.404;11.034;2024-03-08T12:35:55;97671.38;;;10.56;43.86
75627;BME280;67372;49.404;11.034;2024-03-08T12:38:22;97650.09;;;10.37;42.79
75627;BME280;67372;49.404;11.034;2024-03-08T12:40:49;97658.34;;;10.36;43.29
75627;BME280;67372;49.404;11.034;2024-03-08T12:43:15;97660.41;;;10.34;43.67
75627;BME280;67372;49.404;11.034;2024-03-08T12:45:42;97649.28;;;10.37;43.67
75627;BME280;67372;49.404;11.034;2024-03-08T12:48:14;97640.84;;;10.40;42.39
75627;BME280;67372;49.404;11.034;2024-03-08T12:50:40;97637.94;;;10.30;42.79
75627;BME280;67372;49.404;11.034;2024-03-08T12:53:07;97627.72;;;10.38;42.86
75627;BME280;67372;49.404;11.034;2024-03-08T12:55:34;97639.13;;;10.45;42.42
75627;BME280;67372;49.404;11.034;2024-03-08T12:58:02;97630.09;;;10.47;42.40
75627;BME280;67372;49.404;11.034;2024-03-08T13:00:29;97632.06;;;10.51;42.28
75627;BME280;67372;49.404;11.034;2024-03-08T13:02:55;97628.81;;;10.49;42.16
75627;BME280;67372;49.404;11.034;2024-03-08T13:05:21;97615.81;;;10.53;43.03
75627;BME280;67372;49.404;11.034;2024-03-08T13:07:48;97610.72;;;10.51;41.51
75627;BME280;67372;49.404;11.034;2024-03-08T13:10:15;97612.47;;;10.57;42.29
75627;BME280;67372;49.404;11.034;2024-03-08T13:12:42;97608.28;;;10.61;43.06
75627;BME280;67372;49.404;11.034;2024-03-08T13:15:09;97603.19;;;10.71;43.03
75627;BME280;67372;49.404;11.034;2024-03-08T13:17:36;97602.03;;;10.79;42.70
75627;BME280;67372;49.404;11.034;2024-03-08T13:20:03;97598.31;;;10.80;42.07
75627;BME280;67372;49.404;11.034;2024-03-08T13:22:29;97601.00;;;10.80;42.61
75627;BME280;67372;49.404;11.034;2024-03-08T13:24:55;97586.72;;;10.86;42.02
75627;BME280;67372;49.404;11.034;2024-03-08T13:27:22;97587.75;;;10.85;42.00
75627;BME280;67372;49.404;11.034;2024-03-08T13:29:48;97575.81;;;10.76;41.85
75627;BME280;67372;49.404;11.034;2024-03-08T13:32:15;97578.72;;;10.86;42.40
75627;BME280;67372;49.404;11.034;2024-03-08T13:34:43;97569.41;;;11.00;41.98
75627;BME280;67372;49.404;11.034;2024-03-08T13:37:09;97574.75;;;11.00;41.86
75627;BME280;67372;49.404;11.034;2024-03-08T13:39:36;97573.38;;;10.98;41.78
75627;BME280;67372;49.404;11.034;2024-03-08T13:42:02;97570.00;;;11.02;41.73
75627;BME280;67372;49.404;11.034;2024-03-08T13:44:29;97565.94;;;11.00;41.69
75627;BME280;67372;49.404;11.034;2024-03-08T13:46:55;97563.41;;;10.93;40.72
75627;BME280;67372;49.404;11.034;2024-03-08T13:49:22;97560.38;;;11.01;42.52
75627;BME280;67372;49.404;11.034;2024-03-08T13:51:48;97561.03;;;11.08;41.42
75627;BME280;67372;49.404;11.034;2024-03-08T13:54:14;97560.13;;;11.15;41.77
75627;BME280;67372;49.404;11.034;2024-03-08T13:56:41;97553.84;;;11.21;41.53
75627;BME280;67372;49.404;11.034;2024-03-08T13:59:07;97552.63;;;11.28;41.55